This demonstration page uses our WeatherBlox Daily Observations layout. Learn more.

Left ArrowRight Arrow

39.92423, -83.80882

Hourly Observations for July 1, 2019

Temp ( °F °C ) Dew Point ( °F °C ) Humidity (%) Winds ( mph kmh ) Pressure ( in mb ) Visibility ( mi km ) Precip ( " mm )
12:56 am 00:56 Clear 74 23.6 64 18 71 71 N N/A 30.01 1016 10 16.0934 N/A
1:56 am 01:56 Clear 73 22.9 63 17.1 70 70 ESE 3 6 30 1016 10 16.0934 N/A
2:56 am 02:56 Clear 73 22.8 63 17 70 70 N N/A 29.99 1016 10 16.0934 N/A
3:56 am 03:56 Clear 72 22 61 16.3 70 70 N N/A 29.99 1016 10 16.0934 N/A
4:56 am 04:56 Clear 71 21.5 60 15.8 70 70 N N/A 30 1016 10 16.0934 N/A
5:56 am 05:56 Clear 69 20.3 61 16.1 77 77 N N/A 30 1016 10 16.0934 N/A
6:56 am 06:56 Sunny 69 20.8 62 16.6 77 77 N N/A 30.01 1016 10 16.0934 N/A
7:09 am 07:09 Partly Cloudy with Light Rain 72 22 63 17 73 73 N N/A 30.02 1017 10 16.0934 N/A
7:56 am 07:56 Mostly Sunny 73 22.8 64 17.5 72 72 SE 7 11 30.03 1017 10 16.0934 N/A
8:56 am 08:56 Mostly Sunny 76 24.3 63 17.3 65 65 S 7 11 30.04 1017 10 16.0934 N/A
9:56 am 09:56 Mostly Cloudy 79 25.9 66 18.8 65 65 S 10 17 30.03 1017 10 16.0934 N/A
10:56 am 10:56 Sunny 80 26.8 68 20.1 67 67 SSW 3 6 30.03 1017 10 16.0934 N/A
11:56 am 11:56 Sunny 83 28.2 69 20.7 64 64 WSW 8 13 30.02 1017 10 16.0934 N/A
12:56 pm 12:56 Sunny 85 29.6 67 19.6 55 55 N N/A 30.01 1016 10 16.0934 N/A
1:56 pm 13:56 Sunny 87 30.7 66 19 50 50 SSW 7 11 30 1016 10 16.0934 N/A
2:56 pm 14:56 Sunny 88 31.2 68 19.8 51 51 W 8 13 29.98 1015 10 16.0934 N/A
3:56 pm 15:56 Sunny 89 31.6 68 19.9 50 50 N N/A 29.97 1015 10 16.0934 N/A
4:56 pm 16:56 Sunny 90 32.2 68 19.8 48 48 SSW 8 13 29.96 1014 10 16.0934 N/A
5:56 pm 17:56 Mostly Sunny 90 32.1 67 19.3 47 47 SSW 5 7 29.95 1014 10 16.0934 N/A
6:56 pm 18:56 Sunny 89 31.6 68 19.9 50 50 SSW 9 15 29.93 1014 10 16.0934 N/A
7:56 pm 19:56 Sunny 87 30.7 69 20.3 54 54 SSW 7 11 29.93 1013 10 16.0934 N/A
11:56 pm 23:56 Mostly Clear 75 23.9 68 20 79 79 SSW 7 11 29.96 1015 10 16.0934 N/A

Powered by AerisWeather